Climatologie pour Saint-Brevin les Pins
Jour • Résumé pour juin 8, 2017 Système :  Métrique    Anglais   Mixte
« - 1 jour
+ 1 jour »
Jour Semaine Mois Année Personnalisé
  Maximum : Minimum : Moyenne :
Température sous abri : 22.6 °C 10.6 °C 16.2 °C
Point de rosée : 17.8 °C 10.0 °C 14 °C
Humidité : 96 % 68 % 87 %
Vitesse du vent : 20.9 km/h 0.0 km/h 5.7 km/h
Rafale : 30.6 km/h - -
Direction :- - SW
Pression : 1018.8 hPa 1010.0 hPa -
Précipitations : 1.5 mm    
Historical Graphs
 
 
Tableau de données pour juin 8, 2017
Heure Tempé Pt rosée Pression Vent Vitesse Rafale Humidité Taux pluie (/hr) Soleil
00:00 13.9 °C 12.0 °C 1018.8 hPa South 4.8 km/h 9.7 km/h 88 % 0.0 mm 0 W/m2
00:05 14.1 °C 11.9 °C 1018.5 hPa SSW 3.2 km/h 9.7 km/h 87 % 0.0 mm 0 W/m2
00:10 14.1 °C 12.0 °C 1018.5 hPa South 3.2 km/h 9.7 km/h 87 % 0.0 mm 0 W/m2
00:15 14.2 °C 12.0 °C 1018.5 hPa South 3.2 km/h 8.0 km/h 87 % 0.0 mm 0 W/m2
00:20 14.1 °C 11.9 °C 1018.5 hPa South 3.2 km/h 8.0 km/h 87 % 0.0 mm 0 W/m2
00:25 14.1 °C 11.9 °C 1018.5 hPa South 3.2 km/h 8.0 km/h 87 % 0.0 mm 0 W/m2
00:30 14.0 °C 11.9 °C 1018.5 hPa South 3.2 km/h 6.4 km/h 87 % 0.0 mm 0 W/m2
00:35 13.8 °C 11.7 °C 1018.5 hPa South 3.2 km/h 6.4 km/h 87 % 0.0 mm 0 W/m2
00:40 13.7 °C 11.6 °C 1018.2 hPa South 1.6 km/h 6.4 km/h 87 % 0.0 mm 0 W/m2
00:45 13.6 °C 11.6 °C 1018.2 hPa South 1.6 km/h 4.8 km/h 88 % 0.0 mm 0 W/m2
00:50 13.6 °C 11.6 °C 1018.2 hPa Calm   4.8 km/h 88 % 0.0 mm 0 W/m2
00:55 13.4 °C 11.5 °C 1018.2 hPa Calm   6.4 km/h 88 % 0.0 mm 0 W/m2
01:00 13.3 °C 11.6 °C 1018.2 hPa SSE 4.8 km/h 6.4 km/h 89 % 0.0 mm 0 W/m2
01:05 13.3 °C 11.5 °C 1018.2 hPa SSE 1.6 km/h 6.4 km/h 89 % 0.0 mm 0 W/m2
01:10 13.1 °C 11.5 °C 1018.2 hPa Calm   4.8 km/h 90 % 0.0 mm 0 W/m2
01:15 13.0 °C 11.4 °C 1018.2 hPa SSE 3.2 km/h 3.2 km/h 90 % 0.0 mm 0 W/m2
01:20 12.9 °C 11.3 °C 1018.2 hPa Calm   3.2 km/h 90 % 0.0 mm 0 W/m2
01:25 12.7 °C 11.1 °C 1017.8 hPa Calm   3.2 km/h 90 % 0.0 mm 0 W/m2
01:30 12.5 °C 11.1 °C 1017.8 hPa Calm     91 % 0.0 mm 0 W/m2
01:35 12.7 °C 11.4 °C 1017.8 hPa Calm     92 % 0.0 mm 0 W/m2
01:40 12.7 °C 11.3 °C 1017.8 hPa Calm   3.2 km/h 91 % 0.0 mm 0 W/m2
01:45 12.7 °C 11.2 °C 1017.8 hPa SSE 1.6 km/h 3.2 km/h 91 % 0.0 mm 0 W/m2
01:50 12.7 °C 11.4 °C 1017.5 hPa SSE 1.6 km/h 3.2 km/h 92 % 0.0 mm 0 W/m2
01:55 12.6 °C 11.1 °C 1017.8 hPa SSE 1.6 km/h 4.8 km/h 91 % 0.0 mm 0 W/m2
02:00 12.4 °C 11.2 °C 1017.5 hPa Calm   4.8 km/h 92 % 0.0 mm 0 W/m2
02:05 12.3 °C 11.1 °C 1017.5 hPa SSE 3.2 km/h 4.8 km/h 92 % 0.0 mm 0 W/m2
02:10 12.3 °C 11.0 °C 1017.5 hPa SSE 3.2 km/h 4.8 km/h 92 % 0.0 mm 0 W/m2
02:15 12.2 °C 11.1 °C 1017.5 hPa Calm   6.4 km/h 93 % 0.0 mm 0 W/m2
02:20 12.1 °C 11.0 °C 1017.2 hPa Calm   6.4 km/h 93 % 0.0 mm 0 W/m2
02:25 12.1 °C 11.0 °C 1017.2 hPa Calm   3.2 km/h 93 % 0.0 mm 0 W/m2
02:30 11.9 °C 10.8 °C 1016.8 hPa Calm   4.8 km/h 93 % 0.0 mm 0 W/m2
02:35 11.9 °C 10.8 °C 1016.8 hPa SSE 1.6 km/h 4.8 km/h 93 % 0.0 mm 0 W/m2
02:40 11.9 °C 11.0 °C 1016.8 hPa Calm   4.8 km/h 94 % 0.0 mm 0 W/m2
02:45 11.8 °C 10.9 °C 1016.8 hPa SSE 4.8 km/h 4.8 km/h 94 % 0.0 mm 0 W/m2
02:50 11.8 °C 10.8 °C 1016.5 hPa Calm   4.8 km/h 94 % 0.0 mm 0 W/m2
02:55 11.7 °C 10.8 °C 1016.5 hPa SSE 3.2 km/h 4.8 km/h 94 % 0.0 mm 0 W/m2
03:00 11.8 °C 10.8 °C 1016.5 hPa SSE 1.6 km/h 4.8 km/h 94 % 0.0 mm 0 W/m2
03:05 11.7 °C 10.8 °C 1016.1 hPa SSE 1.6 km/h 4.8 km/h 94 % 0.0 mm 0 W/m2
03:10 11.7 °C 10.7 °C 1016.1 hPa SSE 3.2 km/h 4.8 km/h 94 % 0.0 mm 0 W/m2
03:15 11.6 °C 10.7 °C 1016.1 hPa SSE 1.6 km/h 4.8 km/h 94 % 0.0 mm 0 W/m2
03:20 11.7 °C 10.7 °C 1016.1 hPa SSE 3.2 km/h 6.4 km/h 94 % 0.0 mm 0 W/m2
03:25 11.6 °C 10.6 °C 1016.1 hPa Calm   6.4 km/h 94 % 0.0 mm 0 W/m2
03:30 11.5 °C 10.6 °C 1016.1 hPa SSE 3.2 km/h 4.8 km/h 94 % 0.0 mm 0 W/m2
03:35 11.5 °C 10.7 °C 1015.8 hPa Calm   4.8 km/h 95 % 0.0 mm 0 W/m2
03:40 11.5 °C 10.7 °C 1015.8 hPa Calm   4.8 km/h 95 % 0.0 mm 0 W/m2
03:45 11.5 °C 10.7 °C 1015.8 hPa SSE 4.8 km/h 4.8 km/h 95 % 0.0 mm 0 W/m2
03:50 11.4 °C 10.7 °C 1015.8 hPa SSE 3.2 km/h 4.8 km/h 95 % 0.0 mm 0 W/m2
03:55 11.5 °C 10.7 °C 1015.8 hPa SSE 3.2 km/h 6.4 km/h 95 % 0.0 mm 0 W/m2
04:00 11.4 °C 10.7 °C 1015.8 hPa Calm   6.4 km/h 95 % 0.0 mm 0 W/m2
04:05 11.4 °C 10.7 °C 1015.8 hPa SSE 1.6 km/h 4.8 km/h 95 % 0.0 mm 0 W/m2
04:10 11.4 °C 10.6 °C 1015.8 hPa SSE 1.6 km/h 4.8 km/h 95 % 0.0 mm 0 W/m2
04:15 11.3 °C 10.6 °C 1015.8 hPa Calm   4.8 km/h 95 % 0.0 mm 0 W/m2
04:20 11.2 °C 10.5 °C 1015.8 hPa Calm   4.8 km/h 95 % 0.0 mm 0 W/m2
04:25 11.3 °C 10.6 °C 1015.5 hPa SSE 3.2 km/h 4.8 km/h 95 % 0.0 mm 0 W/m2
04:30 11.3 °C 10.6 °C 1015.5 hPa SSE 1.6 km/h 4.8 km/h 95 % 0.0 mm 0 W/m2
04:35 11.3 °C 10.6 °C 1015.5 hPa SSE 1.6 km/h 4.8 km/h 95 % 0.0 mm 0 W/m2
04:40 11.3 °C 10.6 °C 1015.5 hPa SSE 4.8 km/h 4.8 km/h 95 % 0.0 mm 0 W/m2
04:45 11.3 °C 10.6 °C 1015.5 hPa Calm   4.8 km/h 95 % 0.0 mm 0 W/m2
04:50 11.3 °C 10.6 °C 1015.5 hPa SSE 3.2 km/h 4.8 km/h 95 % 0.0 mm 0 W/m2
04:55 11.2 °C 10.5 °C 1015.1 hPa Calm   4.8 km/h 95 % 0.0 mm 0 W/m2
05:00 11.2 °C 10.5 °C 1015.1 hPa Calm   3.2 km/h 95 % 0.0 mm 0 W/m2
05:05 11.2 °C 10.5 °C 1015.5 hPa Calm   3.2 km/h 95 % 0.0 mm 0 W/m2
05:10 11.2 °C 10.6 °C 1015.1 hPa SSE 3.2 km/h 3.2 km/h 96 % 0.0 mm 0 W/m2
05:15 11.2 °C 10.6 °C 1015.1 hPa SSE 1.6 km/h 3.2 km/h 96 % 0.0 mm 0 W/m2
05:25 11.1 °C 10.3 °C 1015.1 hPa Calm   4.8 km/h 95 % 0.0 mm 0 W/m2
05:30 10.9 °C 10.2 °C 1015.1 hPa Calm   4.8 km/h 95 % 0.0 mm 0 W/m2
05:35 10.9 °C 10.3 °C 1015.1 hPa Calm   3.2 km/h 96 % 0.0 mm 0 W/m2
05:45 10.7 °C 10.1 °C 1014.8 hPa Calm   1.6 km/h 96 % 0.0 mm 0 W/m2
05:50 10.6 °C 10.0 °C 1014.8 hPa Calm   3.2 km/h 96 % 0.0 mm 0 W/m2
05:55 10.6 °C 10.0 °C 1014.8 hPa Calm   3.2 km/h 96 % 0.0 mm 0 W/m2
06:05 10.8 °C 10.2 °C 1014.8 hPa Calm   3.2 km/h 96 % 0.0 mm 0 W/m2
06:10 10.7 °C 10.1 °C 1014.8 hPa Calm   3.2 km/h 96 % 0.0 mm 0 W/m2
06:15 10.7 °C 10.1 °C 1014.8 hPa Calm   4.8 km/h 96 % 0.0 mm 0 W/m2
06:20 10.7 °C 10.1 °C 1014.4 hPa SSE 3.2 km/h 4.8 km/h 96 % 0.0 mm 0 W/m2
06:25 10.7 °C 10.1 °C 1014.4 hPa Calm   4.8 km/h 96 % 0.0 mm 5 W/m2
06:30 10.8 °C 10.2 °C 1014.4 hPa SSE 1.6 km/h 4.8 km/h 96 % 0.0 mm 11 W/m2
06:35 10.9 °C 10.3 °C 1014.4 hPa SSE 3.2 km/h 6.4 km/h 96 % 0.0 mm 16 W/m2
06:40 11.0 °C 10.4 °C 1014.4 hPa SSE 1.6 km/h 6.4 km/h 96 % 0.0 mm 19 W/m2
06:45 11.1 °C 10.5 °C 1014.4 hPa SSE 1.6 km/h 4.8 km/h 96 % 0.0 mm 23 W/m2
06:50 11.2 °C 10.6 °C 1014.4 hPa Calm   4.8 km/h 96 % 0.0 mm 26 W/m2
06:55 11.3 °C 10.7 °C 1014.4 hPa SSE 1.6 km/h 4.8 km/h 96 % 0.0 mm 30 W/m2
07:00 11.4 °C 10.8 °C 1014.4 hPa Calm   4.8 km/h 96 % 0.0 mm 33 W/m2
07:05 11.5 °C 10.9 °C 1014.4 hPa SSE 6.4 km/h 6.4 km/h 96 % 0.0 mm 39 W/m2
07:10 11.6 °C 11.0 °C 1014.4 hPa Calm   6.4 km/h 96 % 0.0 mm 44 W/m2
07:15 11.7 °C 11.1 °C 1014.1 hPa Calm   4.8 km/h 96 % 0.0 mm 47 W/m2
07:20 11.8 °C 11.2 °C 1014.4 hPa Calm   4.8 km/h 96 % 0.0 mm 51 W/m2
07:25 12.0 °C 11.4 °C 1014.1 hPa Calm   4.8 km/h 96 % 0.0 mm 58 W/m2
07:30 12.2 °C 11.5 °C 1014.4 hPa SSE 3.2 km/h 4.8 km/h 96 % 0.0 mm 67 W/m2
07:35 12.3 °C 11.7 °C 1014.4 hPa Calm   6.4 km/h 96 % 0.0 mm 72 W/m2
07:40 12.6 °C 11.9 °C 1014.4 hPa SSE 3.2 km/h 6.4 km/h 96 % 0.0 mm 79 W/m2
07:45 12.8 °C 12.0 °C 1014.1 hPa SSE 1.6 km/h 6.4 km/h 95 % 0.0 mm 88 W/m2
07:50 13.0 °C 12.2 °C 1014.1 hPa SSE 1.6 km/h 6.4 km/h 95 % 0.0 mm 100 W/m2
07:55 13.2 °C 12.4 °C 1014.1 hPa SSE 3.2 km/h 11.3 km/h 95 % 0.0 mm 128 W/m2
08:00 13.5 °C 12.6 °C 1014.1 hPa Calm   11.3 km/h 94 % 0.0 mm 116 W/m2
08:05 13.8 °C 12.8 °C 1014.1 hPa SSE 4.8 km/h 9.7 km/h 94 % 0.0 mm 144 W/m2
08:10 14.1 °C 13.0 °C 1014.1 hPa South 4.8 km/h 9.7 km/h 93 % 0.0 mm 167 W/m2
08:15 14.4 °C 13.3 °C 1014.1 hPa SSE 3.2 km/h 11.3 km/h 93 % 0.0 mm 202 W/m2
08:20 14.7 °C 13.4 °C 1014.1 hPa South 4.8 km/h 11.3 km/h 92 % 0.0 mm 248 W/m2
08:25 15.1 °C 13.7 °C 1014.1 hPa SSE 6.4 km/h 11.3 km/h 91 % 0.0 mm 248 W/m2
08:35 15.8 °C 14.0 °C 1013.8 hPa South 4.8 km/h 16.1 km/h 89 % 0.0 mm 274 W/m2
08:40 16.1 °C 14.1 °C 1013.8 hPa SSW 6.4 km/h 16.1 km/h 88 % 0.0 mm 206 W/m2
08:45 16.3 °C 14.3 °C 1013.8 hPa South 4.8 km/h 17.7 km/h 88 % 0.0 mm 158 W/m2
08:50 16.4 °C 14.3 °C 1013.8 hPa SW 9.7 km/h 17.7 km/h 87 % 0.0 mm 236 W/m2
08:55 16.7 °C 14.5 °C 1013.8 hPa SSW 8.0 km/h 14.5 km/h 87 % 0.0 mm 253 W/m2
09:00 16.9 °C 14.6 °C 1014.1 hPa SSW 12.9 km/h 20.9 km/h 86 % 0.0 mm 343 W/m2
09:05 17.2 °C 14.6 °C 1013.8 hPa South 12.9 km/h 25.7 km/h 85 % 0.0 mm 394 W/m2
09:15 17.6 °C 14.8 °C 1013.8 hPa SSE 3.2 km/h 22.5 km/h 84 % 0.0 mm 301 W/m2
09:20 17.7 °C 14.7 °C 1014.1 hPa SSW 16.1 km/h 24.1 km/h 83 % 0.0 mm 362 W/m2
09:25 17.8 °C 14.9 °C 1014.1 hPa SSW 11.3 km/h 24.1 km/h 83 % 0.0 mm 267 W/m2
09:30 18.0 °C 15.1 °C 1014.1 hPa SSW 16.1 km/h 22.5 km/h 83 % 0.0 mm 443 W/m2
09:35 18.2 °C 15.1 °C 1014.1 hPa SW 9.7 km/h 20.9 km/h 82 % 0.0 mm 413 W/m2
09:40 18.2 °C 15.0 °C 1014.1 hPa South 12.9 km/h 17.7 km/h 82 % 0.0 mm 345 W/m2
09:45 18.3 °C 15.2 °C 1014.1 hPa SSW 12.9 km/h 20.9 km/h 82 % 0.0 mm 313 W/m2
09:50 18.3 °C 15.2 °C 1014.1 hPa South 14.5 km/h 20.9 km/h 82 % 0.0 mm 309 W/m2
10:00 18.3 °C 15.2 °C 1013.8 hPa SSW 11.3 km/h 20.9 km/h 82 % 0.0 mm 367 W/m2
10:05 18.4 °C 15.3 °C 1013.8 hPa SSW 8.0 km/h 30.6 km/h 82 % 0.0 mm 315 W/m2
10:10 18.7 °C 15.6 °C 1013.8 hPa SW 3.2 km/h 30.6 km/h 82 % 0.0 mm 381 W/m2
10:15 18.9 °C 15.4 °C 1014.1 hPa SSW 14.5 km/h 27.4 km/h 80 % 0.0 mm 492 W/m2
10:20 19.2 °C 15.4 °C 1013.8 hPa South 11.3 km/h 30.6 km/h 79 % 0.0 mm 512 W/m2
10:25 19.6 °C 15.8 °C 1014.1 hPa SSW 6.4 km/h 30.6 km/h 79 % 0.0 mm 577 W/m2
10:30 19.9 °C 16.0 °C 1014.1 hPa South 20.9 km/h 25.7 km/h 78 % 0.0 mm 552 W/m2
10:35 19.7 °C 15.1 °C 1014.1 hPa South 14.5 km/h 29.0 km/h 75 % 0.0 mm 348 W/m2
10:40 19.4 °C 15.0 °C 1014.1 hPa South 16.1 km/h 29.0 km/h 76 % 0.0 mm 327 W/m2
10:45 19.2 °C 15.1 °C 1013.8 hPa SSE 11.3 km/h 24.1 km/h 77 % 0.0 mm 309 W/m2
10:50 19.1 °C 15.0 °C 1013.8 hPa SSW 9.7 km/h 27.4 km/h 77 % 0.0 mm 343 W/m2
10:55 19.3 °C 15.2 °C 1013.8 hPa SSW 14.5 km/h 27.4 km/h 77 % 0.0 mm 439 W/m2
11:00 19.6 °C 15.1 °C 1013.8 hPa SSW 16.1 km/h 25.7 km/h 75 % 0.0 mm 504 W/m2
11:05 19.8 °C 15.2 °C 1014.1 hPa SSW 14.5 km/h 29.0 km/h 75 % 0.0 mm 443 W/m2
11:15 19.8 °C 15.7 °C 1014.1 hPa SSW 12.9 km/h 20.9 km/h 77 % 0.0 mm 503 W/m2
11:20 19.8 °C 15.7 °C 1014.1 hPa SSW 11.3 km/h 22.5 km/h 77 % 0.0 mm 682 W/m2
11:25 19.9 °C 15.8 °C 1013.8 hPa SSW 6.4 km/h 25.7 km/h 77 % 0.0 mm 691 W/m2
11:30 20.2 °C 15.6 °C 1013.8 hPa SSW 6.4 km/h 25.7 km/h 75 % 0.0 mm 684 W/m2
11:35 20.6 °C 16.2 °C 1013.8 hPa South 8.0 km/h 25.7 km/h 76 % 0.0 mm 779 W/m2
11:40 20.8 °C 16.0 °C 1013.8 hPa SW 8.0 km/h 25.7 km/h 74 % 0.0 mm 670 W/m2
11:45 20.7 °C 16.1 °C 1013.8 hPa SSW 12.9 km/h 24.1 km/h 75 % 0.0 mm 870 W/m2
11:50 20.8 °C 16.0 °C 1013.8 hPa SSW 11.3 km/h 24.1 km/h 74 % 0.0 mm 802 W/m2
12:00 21.1 °C 16.2 °C 1013.8 hPa SSW 8.0 km/h 29.0 km/h 74 % 0.0 mm 691 W/m2
12:05 20.9 °C 16.1 °C 1013.8 hPa South 6.4 km/h 24.1 km/h 74 % 0.0 mm 788 W/m2
12:15 20.5 °C 15.7 °C 1014.1 hPa South 16.1 km/h 25.7 km/h 74 % 0.0 mm 765 W/m2
12:20 20.8 °C 16.4 °C 1014.1 hPa SW 11.3 km/h 25.7 km/h 76 % 0.0 mm 882 W/m2
12:25 20.9 °C 15.9 °C 1014.1 hPa SSW 19.3 km/h 22.5 km/h 73 % 0.0 mm 914 W/m2
12:30 20.9 °C 16.1 °C 1013.8 hPa SSE 11.3 km/h 24.1 km/h 74 % 0.0 mm 930 W/m2
12:35 20.7 °C 15.9 °C 1013.8 hPa South 14.5 km/h 24.1 km/h 74 % 0.0 mm 919 W/m2
12:40 20.8 °C 16.0 °C 1013.8 hPa South 6.4 km/h 24.1 km/h 74 % 0.0 mm 800 W/m2
12:45 20.8 °C 16.0 °C 1013.8 hPa SSW 11.3 km/h 22.5 km/h 74 % 0.0 mm 656 W/m2
12:50 20.9 °C 16.6 °C 1013.8 hPa SSW 6.4 km/h 25.7 km/h 75 % 0.0 mm 930 W/m2
12:55 20.9 °C 15.9 °C 1013.8 hPa SSW 16.1 km/h 25.7 km/h 73 % 0.0 mm 680 W/m2
13:00 20.8 °C 16.0 °C 1013.8 hPa SSW 11.3 km/h 24.1 km/h 74 % 0.0 mm 918 W/m2
13:05 21.2 °C 16.6 °C 1013.8 hPa SW 4.8 km/h 17.7 km/h 75 % 0.0 mm 830 W/m2
13:10 21.6 °C 16.5 °C 1013.8 hPa SSW 8.0 km/h 14.5 km/h 73 % 0.0 mm 800 W/m2
13:15 21.5 °C 16.5 °C 1013.8 hPa SSW 11.3 km/h 16.1 km/h 73 % 0.0 mm 819 W/m2
13:20 21.3 °C 16.3 °C 1013.8 hPa West 12.9 km/h 19.3 km/h 73 % 0.0 mm 793 W/m2
13:25 21.3 °C 16.3 °C 1013.8 hPa WSW 17.7 km/h 22.5 km/h 73 % 0.0 mm 714 W/m2
13:30 21.1 °C 16.2 °C 1013.8 hPa SW 12.9 km/h 24.1 km/h 74 % 0.0 mm 701 W/m2
13:35 21.7 °C 16.7 °C 1013.8 hPa WNW 6.4 km/h 24.1 km/h 73 % 0.0 mm 889 W/m2
13:45 21.1 °C 16.3 °C 1013.4 hPa SSW 14.5 km/h 19.3 km/h 74 % 0.0 mm 912 W/m2
13:50 21.4 °C 16.3 °C 1013.4 hPa SSW 6.4 km/h 19.3 km/h 73 % 0.0 mm 870 W/m2
13:55 21.4 °C 16.1 °C 1013.1 hPa SSW 11.3 km/h 22.5 km/h 72 % 0.0 mm 777 W/m2
14:00 21.3 °C 15.9 °C 1013.1 hPa WSW 6.4 km/h 22.5 km/h 71 % 0.0 mm 925 W/m2
14:05 21.4 °C 16.2 °C 1013.1 hPa SW 12.9 km/h 22.5 km/h 72 % 0.0 mm 865 W/m2
14:10 21.6 °C 16.1 °C 1013.1 hPa SW 4.8 km/h 17.7 km/h 71 % 0.0 mm 896 W/m2
14:15 21.6 °C 15.9 °C 1013.1 hPa SSW 11.3 km/h 20.9 km/h 70 % 0.0 mm 902 W/m2
14:20 21.7 °C 15.7 °C 1012.8 hPa West 9.7 km/h 20.9 km/h 69 % 0.0 mm 881 W/m2
14:30 22.6 °C 16.6 °C 1013.1 hPa West 6.4 km/h 20.9 km/h 69 % 0.0 mm 881 W/m2
14:35 22.2 °C 16.0 °C 1013.1 hPa SW 8.0 km/h 20.9 km/h 68 % 0.0 mm 884 W/m2
14:40 22.4 °C 17.8 °C 1013.1 hPa West 14.5 km/h 17.7 km/h 75 % 0.0 mm 896 W/m2
14:45 21.9 °C 15.9 °C 1013.1 hPa West 9.7 km/h 19.3 km/h 69 % 0.0 mm 907 W/m2
14:50 21.8 °C 17.0 °C 1012.8 hPa WSW 8.0 km/h 19.3 km/h 74 % 0.0 mm 907 W/m2
14:55 21.6 °C 16.3 °C 1012.8 hPa WSW 4.8 km/h 19.3 km/h 72 % 0.0 mm 851 W/m2
15:00 21.7 °C 16.4 °C 1012.8 hPa SW 6.4 km/h 19.3 km/h 72 % 0.0 mm 898 W/m2
15:05 21.8 °C 16.7 °C 1012.8 hPa SSW 9.7 km/h 17.7 km/h 73 % 0.0 mm 780 W/m2
15:10 21.1 °C 16.0 °C 1012.8 hPa SW 11.3 km/h 19.3 km/h 73 % 0.0 mm 659 W/m2
15:15 21.1 °C 16.5 °C 1012.4 hPa SSW 6.4 km/h 19.3 km/h 75 % 0.0 mm 473 W/m2
15:20 21.8 °C 17.1 °C 1012.4 hPa SW 4.8 km/h 19.3 km/h 75 % 0.0 mm 686 W/m2
15:25 21.6 °C 16.3 °C 1012.8 hPa NW 8.0 km/h 19.3 km/h 72 % 0.0 mm 949 W/m2
15:30 21.3 °C 16.5 °C 1012.8 hPa West 11.3 km/h 19.3 km/h 74 % 0.0 mm 573 W/m2
15:35 20.9 °C 16.3 °C 1012.8 hPa West 6.4 km/h 19.3 km/h 75 % 0.0 mm 925 W/m2
15:45 21.2 °C 16.3 °C 1012.4 hPa West 6.4 km/h 17.7 km/h 74 % 0.0 mm 552 W/m2
15:50 21.5 °C 17.1 °C 1012.1 hPa WNW 12.9 km/h 17.7 km/h 76 % 0.0 mm 916 W/m2
16:00 21.2 °C 16.8 °C 1012.1 hPa West 11.3 km/h 20.9 km/h 76 % 0.0 mm 772 W/m2
16:05 21.3 °C 16.9 °C 1012.1 hPa WSW 11.3 km/h 20.9 km/h 76 % 0.0 mm 700 W/m2
16:10 21.1 °C 16.5 °C 1012.1 hPa WSW 8.0 km/h 20.9 km/h 75 % 0.0 mm 608 W/m2
16:15 20.7 °C 16.7 °C 1012.1 hPa West 6.4 km/h 19.3 km/h 78 % 0.0 mm 515 W/m2
16:20 20.2 °C 16.3 °C 1012.1 hPa West 8.0 km/h 19.3 km/h 78 % 0.0 mm 394 W/m2
16:25 19.8 °C 16.3 °C 1012.1 hPa WSW 9.7 km/h 19.3 km/h 80 % 0.0 mm 766 W/m2
16:30 20.2 °C 16.6 °C 1012.1 hPa West 9.7 km/h 19.3 km/h 80 % 0.0 mm 694 W/m2
16:35 20.2 °C 16.6 °C 1012.1 hPa SW 8.0 km/h 22.5 km/h 80 % 0.0 mm 424 W/m2
16:45 19.6 °C 16.2 °C 1012.4 hPa WSW 9.7 km/h 19.3 km/h 81 % 0.0 mm 320 W/m2
16:50 19.4 °C 16.6 °C 1012.4 hPa West 12.9 km/h 19.3 km/h 84 % 0.0 mm 339 W/m2
16:55 19.3 °C 16.4 °C 1012.4 hPa West 8.0 km/h 20.9 km/h 83 % 0.0 mm 327 W/m2
17:00 19.2 °C 16.5 °C 1012.8 hPa West 14.5 km/h 20.9 km/h 84 % 0.0 mm 285 W/m2
17:05 18.9 °C 16.4 °C 1012.8 hPa West 3.2 km/h 19.3 km/h 85 % 0.0 mm 320 W/m2
17:10 19.1 °C 16.7 °C 1012.8 hPa West 8.0 km/h 25.7 km/h 86 % 0.0 mm 362 W/m2
17:15 19.0 °C 16.4 °C 1012.8 hPa WNW 8.0 km/h 25.7 km/h 85 % 0.0 mm 376 W/m2
17:20 19.3 °C 16.7 °C 1012.4 hPa West 12.9 km/h 22.5 km/h 85 % 0.0 mm 369 W/m2
17:30 18.6 °C 16.4 °C 1012.1 hPa WSW 8.0 km/h 16.1 km/h 87 % 0.0 mm 244 W/m2
17:35 18.6 °C 16.4 °C 1012.1 hPa West 9.7 km/h 16.1 km/h 87 % 0.0 mm 301 W/m2
17:40 18.6 °C 16.6 °C 1012.1 hPa West 4.8 km/h 16.1 km/h 88 % 0.0 mm 288 W/m2
17:45 18.6 °C 16.3 °C 1011.7 hPa WNW 9.7 km/h 16.1 km/h 87 % 0.0 mm 323 W/m2
17:50 18.5 °C 16.3 °C 1011.7 hPa WSW 3.2 km/h 16.1 km/h 87 % 0.0 mm 304 W/m2
17:55 18.8 °C 16.7 °C 1012.1 hPa West 3.2 km/h 12.9 km/h 88 % 0.0 mm 348 W/m2
18:00 18.6 °C 16.6 °C 1012.1 hPa WNW 3.2 km/h 14.5 km/h 88 % 0.0 mm 294 W/m2
18:05 18.4 °C 16.5 °C 1011.7 hPa SW 3.2 km/h 14.5 km/h 89 % 0.0 mm 274 W/m2
18:15 18.6 °C 16.6 °C 1011.7 hPa WSW 3.2 km/h 8.0 km/h 88 % 0.0 mm 202 W/m2
18:20 18.8 °C 16.7 °C 1012.1 hPa West 4.8 km/h 12.9 km/h 88 % 0.0 mm 207 W/m2
18:25 18.5 °C 16.5 °C 1012.1 hPa WNW 9.7 km/h 12.9 km/h 88 % 0.0 mm 204 W/m2
18:30 18.3 °C 16.3 °C 1012.1 hPa WNW 6.4 km/h 17.7 km/h 88 % 0.0 mm 167 W/m2
18:35 18.2 °C 16.3 °C 1011.7 hPa WSW 9.7 km/h 17.7 km/h 89 % 0.0 mm 148 W/m2
18:40 18.1 °C 16.2 °C 1011.7 hPa West 4.8 km/h 16.1 km/h 89 % 0.0 mm 113 W/m2
18:45 17.9 °C 16.1 °C 1011.4 hPa West 6.4 km/h 16.1 km/h 89 % 0.0 mm 49 W/m2
18:50 17.7 °C 15.9 °C 1011.7 hPa WSW 4.8 km/h 14.5 km/h 89 % 0.0 mm 19 W/m2
19:05 17.3 °C 16.0 °C 1011.7 hPa WNW 3.2 km/h 9.7 km/h 92 % 0.3 mm 30 W/m2
19:10 17.2 °C 16.1 °C 1011.4 hPa West 1.6 km/h 11.3 km/h 93 % 0.5 mm 35 W/m2
19:15 17.2 °C 16.0 °C 1011.4 hPa South 8.0 km/h 11.3 km/h 93 % 0.5 mm 40 W/m2
19:20 17.2 °C 16.0 °C 1010.7 hPa SE 6.4 km/h 8.0 km/h 93 % 0.8 mm 70 W/m2
19:25 17.1 °C 16.1 °C 1010.4 hPa SSE 11.3 km/h 12.9 km/h 94 % 1.0 mm 65 W/m2
19:30 17.1 °C 16.1 °C 1010.0 hPa Calm   14.5 km/h 94 % 1.3 mm 116 W/m2
19:35 17.1 °C 16.2 °C 1010.7 hPa NW 6.4 km/h 16.1 km/h 95 % 1.3 mm 113 W/m2
19:45 17.1 °C 16.3 °C 1011.4 hPa West 8.0 km/h 19.3 km/h 95 % 1.3 mm 167 W/m2
19:50 17.1 °C 16.2 °C 1011.1 hPa West 4.8 km/h 16.1 km/h 95 % 1.5 mm 141 W/m2
19:55 16.9 °C 16.1 °C 1011.4 hPa West 3.2 km/h 16.1 km/h 95 % 1.5 mm 120 W/m2
20:00 16.9 °C 16.1 °C 1011.4 hPa WNW 4.8 km/h 12.9 km/h 95 % 1.3 mm 105 W/m2
20:05 16.9 °C 16.1 °C 1011.7 hPa West 6.4 km/h 12.9 km/h 95 % 1.3 mm 83 W/m2
20:10 16.8 °C 16.0 °C 1011.4 hPa WNW 8.0 km/h 9.7 km/h 95 % 1.0 mm 60 W/m2
20:20 16.7 °C 15.9 °C 1011.4 hPa West 1.6 km/h 9.7 km/h 95 % 0.5 mm 69 W/m2
20:30 16.7 °C 15.9 °C 1011.7 hPa WNW 9.7 km/h 17.7 km/h 95 % 0.3 mm 63 W/m2
20:35 16.6 °C 15.8 °C 1011.7 hPa West 6.4 km/h 17.7 km/h 95 % 0.3 mm 58 W/m2
20:40 16.5 °C 15.5 °C 1011.7 hPa WNW 12.9 km/h 16.1 km/h 94 % 0.3 mm 56 W/m2
20:45 16.3 °C 15.4 °C 1011.4 hPa West 4.8 km/h 16.1 km/h 94 % 0.3 mm 51 W/m2
20:50 16.3 °C 15.4 °C 1011.4 hPa West 3.2 km/h 14.5 km/h 94 % 0.0 mm 42 W/m2
20:55 16.3 °C 15.5 °C 1011.4 hPa Calm   11.3 km/h 95 % 0.0 mm 35 W/m2
21:00 16.3 °C 15.3 °C 1011.1 hPa WNW 4.8 km/h 6.4 km/h 94 % 0.0 mm 39 W/m2
21:05 16.1 °C 15.1 °C 1011.1 hPa WNW 6.4 km/h 9.7 km/h 94 % 0.0 mm 33 W/m2
21:15 15.8 °C 15.0 °C 1011.1 hPa NW 3.2 km/h 8.0 km/h 95 % 0.0 mm 23 W/m2
21:20 15.7 °C 14.9 °C 1011.1 hPa NW 8.0 km/h 9.7 km/h 95 % 0.0 mm 21 W/m2
21:25 15.6 °C 14.8 °C 1011.1 hPa WNW 6.4 km/h 11.3 km/h 95 % 0.0 mm 19 W/m2
21:30 15.6 °C 14.6 °C 1011.4 hPa Calm   11.3 km/h 94 % 0.0 mm 18 W/m2
21:35 15.6 °C 14.6 °C 1011.1 hPa WNW 4.8 km/h 11.3 km/h 94 % 0.0 mm 16 W/m2
21:40 15.6 °C 14.8 °C 1011.1 hPa Calm   6.4 km/h 95 % 0.0 mm 18 W/m2
21:45 15.6 °C 14.8 °C 1011.1 hPa Calm   4.8 km/h 95 % 0.0 mm 19 W/m2
21:50 15.6 °C 14.6 °C 1011.1 hPa West 1.6 km/h 6.4 km/h 94 % 0.0 mm 21 W/m2
22:00 15.5 °C 14.7 °C 1010.7 hPa Calm   4.8 km/h 95 % 0.0 mm 14 W/m2
22:05 15.4 °C 14.6 °C 1010.7 hPa Calm   3.2 km/h 95 % 0.0 mm 7 W/m2
22:10 15.3 °C 14.7 °C 1010.7 hPa West 1.6 km/h 3.2 km/h 96 % 0.0 mm 5 W/m2
22:15 15.3 °C 14.6 °C 1010.7 hPa West 6.4 km/h 6.4 km/h 96 % 0.0 mm 5 W/m2
22:20 15.1 °C 14.5 °C 1010.7 hPa WNW 4.8 km/h 6.4 km/h 96 % 0.0 mm 0 W/m2
22:25 15.1 °C 14.5 °C 1010.7 hPa WNW 3.2 km/h 6.4 km/h 96 % 0.0 mm 0 W/m2
22:30 15.1 °C 14.4 °C 1010.4 hPa NW 4.8 km/h 8.0 km/h 96 % 0.0 mm 0 W/m2
22:35 15.1 °C 14.5 °C 1010.4 hPa WNW 3.2 km/h 8.0 km/h 96 % 0.0 mm 0 W/m2
22:45 15.0 °C 14.4 °C 1010.7 hPa NW 8.0 km/h 9.7 km/h 96 % 0.0 mm 0 W/m2
22:50 15.1 °C 14.4 °C 1011.1 hPa West 4.8 km/h 12.9 km/h 96 % 0.0 mm 0 W/m2
22:55 15.2 °C 14.5 °C 1011.4 hPa NW 11.3 km/h 17.7 km/h 96 % 0.0 mm 0 W/m2
23:00 15.3 °C 14.5 °C 1011.7 hPa West 6.4 km/h 17.7 km/h 95 % 0.0 mm 0 W/m2
23:05 15.5 °C 14.5 °C 1011.7 hPa NW 4.8 km/h 14.5 km/h 94 % 0.0 mm 0 W/m2
23:10 15.5 °C 14.5 °C 1011.7 hPa West 4.8 km/h 14.5 km/h 94 % 0.0 mm 0 W/m2
23:15 15.6 °C 14.6 °C 1012.1 hPa West 4.8 km/h 11.3 km/h 94 % 0.0 mm 0 W/m2
23:20 15.6 °C 14.6 °C 1011.7 hPa NW 1.6 km/h 11.3 km/h 94 % 0.0 mm 0 W/m2
23:30 15.6 °C 14.6 °C 1011.7 hPa WNW 9.7 km/h 19.3 km/h 94 % 0.0 mm 0 W/m2
23:35 15.7 °C 14.8 °C 1011.7 hPa NW 4.8 km/h 17.7 km/h 94 % 0.0 mm 0 W/m2
23:40 15.8 °C 14.9 °C 1011.7 hPa NW 8.0 km/h 19.3 km/h 94 % 0.0 mm 0 W/m2
23:45 15.9 °C 15.0 °C 1011.7 hPa West 6.4 km/h 20.9 km/h 94 % 0.0 mm 0 W/m2
23:50 15.9 °C 15.0 °C 1011.7 hPa WSW 14.5 km/h 20.9 km/h 94 % 0.0 mm 0 W/m2
23:55 16.0 °C 15.0 °C 1011.7 hPa West 6.4 km/h 19.3 km/h 94 % 0.0 mm 0 W/m2
Avec l'autorisation de Weather Underground - 1.5 mb